Time;durP1;ratioP1;P1;durP2;ratioP2;P2;SDS_P1;SDS_P2;PMS_P1;PMS_P2;Temp;Humidity;BMP_temperature;BMP_pressure;BME280_temperature;BME280_humidity;BME280_pressure;Samples;Min_cycle;Max_cycle;Signal;HPM_P1;HPM_P2
2021/07/07 00:00:19;;;;;;;13.70;9.77;;;24.30;99.90;;;;;;5138228;27;20559;-64
2021/07/07 00:02:45;;;;;;;9.93;8.63;;;24.30;99.90;;;;;;5120010;27;20425;-64
2021/07/07 00:05:12;;;;;;;10.30;9.20;;;24.30;99.90;;;;;;5138132;27;20442;-64
2021/07/07 00:07:38;;;;;;;12.83;9.40;;;24.30;99.90;;;;;;5138312;27;20162;-68
2021/07/07 00:10:07;;;;;;;10.97;8.97;;;24.20;99.90;;;;;;5138090;27;20444;-68
2021/07/07 00:12:33;;;;;;;12.70;9.27;;;24.20;99.90;;;;;;5119700;27;20402;-68
2021/07/07 00:14:59;;;;;;;14.70;9.90;;;24.10;99.90;;;;;;5138054;27;20778;-63
2021/07/07 00:17:25;;;;;;;12.43;8.60;;;24.10;99.90;;;;;;5137976;27;20174;-64
2021/07/07 00:19:51;;;;;;;12.57;9.97;;;24.00;99.90;;;;;;5137794;27;20456;-68
2021/07/07 00:22:17;;;;;;;10.60;9.00;;;24.00;99.90;;;;;;5137987;27;20397;-64
2021/07/07 00:24:42;;;;;;;12.90;8.47;;;23.90;99.90;;;;;;5137759;27;20173;-68
2021/07/07 00:27:13;;;;;;;17.17;9.20;;;23.90;99.90;;;;;;5136543;27;20415;-67
2021/07/07 00:29:39;;;;;;;11.37;9.30;;;23.80;99.90;;;;;;5119421;27;20545;-63
2021/07/07 00:32:05;;;;;;;10.80;9.60;;;23.70;99.90;;;;;;5119176;27;20443;-64
2021/07/07 00:34:31;;;;;;;13.33;9.50;;;23.70;99.90;;;;;;5137767;27;20418;-68
2021/07/07 00:36:57;;;;;;;14.87;9.13;;;23.70;99.90;;;;;;5138061;27;20442;-67
2021/07/07 00:39:22;;;;;;;14.93;9.43;;;23.60;99.90;;;;;;5137752;27;20467;-65
2021/07/07 00:41:48;;;;;;;12.93;9.40;;;23.60;99.90;;;;;;5136480;27;20595;-64
2021/07/07 00:44:13;;;;;;;14.70;9.80;;;23.60;99.90;;;;;;5137635;27;20215;-68
2021/07/07 00:46:39;;;;;;;10.03;8.93;;;23.50;99.90;;;;;;5136290;27;20199;-68
2021/07/07 00:49:05;;;;;;;15.53;9.37;;;23.50;99.90;;;;;;5137421;27;20171;-68
2021/07/07 00:51:32;;;;;;;14.40;9.73;;;23.50;99.90;;;;;;5136191;27;20203;-64
2021/07/07 00:54:00;;;;;;;11.60;9.10;;;23.40;99.90;;;;;;5137313;27;20171;-68
2021/07/07 00:56:27;;;;;;;11.03;9.90;;;23.40;99.90;;;;;;5137081;27;20994;-64
2021/07/07 00:58:54;;;;;;;11.70;9.87;;;23.40;99.90;;;;;;5137121;27;20458;-64
2021/07/07 01:01:20;;;;;;;15.93;9.57;;;23.40;99.90;;;;;;5136208;27;20932;-68
2021/07/07 01:03:46;;;;;;;11.10;8.80;;;23.40;99.90;;;;;;5137211;27;20410;-64
2021/07/07 01:06:12;;;;;;;14.23;10.40;;;23.40;99.90;;;;;;5137320;27;20203;-63
2021/07/07 01:08:37;;;;;;;12.87;10.27;;;23.40;99.90;;;;;;5118703;27;20171;-67
2021/07/07 01:11:03;;;;;;;15.03;10.27;;;23.40;99.90;;;;;;5137224;27;20270;-68
2021/07/07 01:13:28;;;;;;;11.93;9.33;;;23.40;99.90;;;;;;5137061;27;20172;-64
2021/07/07 01:15:55;;;;;;;13.07;9.53;;;23.40;99.90;;;;;;5137088;27;20256;-64
2021/07/07 01:18:22;;;;;;;13.80;9.80;;;23.40;99.90;;;;;;5136958;27;20174;-64
2021/07/07 01:20:47;;;;;;;11.10;9.57;;;23.40;99.90;;;;;;5118414;27;20492;-64
2021/07/07 01:23:13;;;;;;;14.23;10.57;;;23.30;99.90;;;;;;5136837;27;20407;-64
2021/07/07 01:25:39;;;;;;;11.90;9.20;;;23.30;99.90;;;;;;5136881;27;20191;-68
2021/07/07 01:28:06;;;;;;;11.03;9.77;;;23.30;99.90;;;;;;5136709;27;20167;-67
2021/07/07 01:30:32;;;;;;;13.57;9.10;;;23.30;99.90;;;;;;5135372;27;20199;-67
2021/07/07 01:32:58;;;;;;;13.07;9.43;;;23.20;99.90;;;;;;5118155;27;20750;-64
2021/07/07 01:35:25;;;;;;;11.20;10.00;;;23.20;99.90;;;;;;5136630;27;20448;-64
2021/07/07 01:37:52;;;;;;;12.90;9.50;;;23.20;99.90;;;;;;5118100;27;20776;-68
2021/07/07 01:40:21;;;;;;;12.33;10.90;;;23.20;99.90;;;;;;5136360;27;20571;-67
2021/07/07 01:42:47;;;;;;;11.67;10.00;;;23.10;99.90;;;;;;5136586;27;20845;-64
2021/07/07 01:45:14;;;;;;;12.57;8.93;;;23.10;99.90;;;;;;5117807;27;20451;-64
2021/07/07 01:47:40;;;;;;;15.03;10.03;;;23.00;99.90;;;;;;5117968;27;20482;-64
2021/07/07 01:50:09;;;;;;;12.23;9.30;;;23.00;99.90;;;;;;5136140;27;20451;-65
2021/07/07 01:52:35;;;;;;;16.10;10.50;;;23.00;99.90;;;;;;5136122;27;20411;-68
2021/07/07 01:55:02;;;;;;;11.90;10.60;;;23.00;99.90;;;;;;5117679;27;20455;-64
2021/07/07 01:57:43;;;;;;;12.30;10.80;;;23.00;99.90;;;;;;5117755;27;20475;-68
2021/07/07 02:00:13;;;;;;;11.30;9.73;;;23.00;99.90;;;;;;5135867;27;20486;-68
2021/07/07 02:02:39;;;;;;;12.27;10.97;;;23.00;99.90;;;;;;5136070;27;20400;-64
2021/07/07 02:05:06;;;;;;;14.33;10.60;;;23.00;99.90;;;;;;5135912;27;20461;-68
2021/07/07 02:07:32;;;;;;;15.23;10.53;;;22.90;99.90;;;;;;5117489;27;20589;-68
2021/07/07 02:09:58;;;;;;;13.53;10.40;;;22.90;99.90;;;;;;5117312;27;20460;-67
2021/07/07 02:12:24;;;;;;;13.00;10.40;;;22.90;99.90;;;;;;5135636;27;20533;-65
2021/07/07 02:14:50;;;;;;;14.13;10.53;;;22.90;99.90;;;;;;5135646;27;20399;-68
2021/07/07 02:17:15;;;;;;;12.40;10.57;;;22.80;99.90;;;;;;5117292;27;20224;-65
2021/07/07 02:19:41;;;;;;;13.50;10.33;;;22.80;99.90;;;;;;5135493;27;20567;-68
2021/07/07 02:22:07;;;;;;;17.13;10.43;;;22.80;99.90;;;;;;5135690;27;20171;-64
2021/07/07 02:24:32;;;;;;;11.83;10.43;;;22.80;99.90;;;;;;5135702;27;20175;-68
2021/07/07 02:26:58;;;;;;;14.63;10.70;;;22.70;99.90;;;;;;5117251;27;20239;-68
2021/07/07 02:29:23;;;;;;;12.53;10.13;;;22.70;99.90;;;;;;5135600;27;20189;-68
2021/07/07 02:31:49;;;;;;;12.47;10.33;;;22.70;99.90;;;;;;5135880;27;20202;-70
2021/07/07 02:34:14;;;;;;;11.77;9.83;;;22.70;99.90;;;;;;5135537;27;20536;-68
2021/07/07 02:36:40;;;;;;;14.70;10.73;;;22.60;99.90;;;;;;5135750;27;20226;-64
2021/07/07 02:39:06;;;;;;;11.47;10.17;;;22.60;99.90;;;;;;5135217;27;20203;-65
2021/07/07 02:41:32;;;;;;;13.10;10.33;;;22.60;99.90;;;;;;5135225;27;20198;-64
2021/07/07 02:43:57;;;;;;;12.50;10.10;;;22.50;99.90;;;;;;5135249;27;20224;-67
2021/07/07 02:46:23;;;;;;;12.50;10.53;;;22.50;99.90;;;;;;5116863;27;20459;-64
2021/07/07 02:48:49;;;;;;;14.50;10.37;;;22.40;99.90;;;;;;5135148;27;20175;-67
2021/07/07 02:51:14;;;;;;;15.50;10.70;;;22.40;99.90;;;;;;5135391;27;20195;-64
2021/07/07 02:53:40;;;;;;;12.80;11.30;;;22.30;99.90;;;;;;5133884;27;20266;-68
2021/07/07 02:56:05;;;;;;;12.47;10.80;;;22.20;99.90;;;;;;5116380;27;20246;-68
2021/07/07 02:58:31;;;;;;;12.60;10.80;;;22.20;99.90;;;;;;5135025;27;20672;-68
2021/07/07 03:00:57;;;;;;;12.93;10.63;;;22.10;99.90;;;;;;5135135;27;20224;-65
2021/07/07 03:03:24;;;;;;;13.70;10.50;;;22.10;99.90;;;;;;5135022;27;20246;-68
2021/07/07 03:05:53;;;;;;;13.13;10.13;;;22.20;99.90;;;;;;5135094;27;20191;-64
2021/07/07 03:08:21;;;;;;;13.63;9.43;;;22.20;99.90;;;;;;5134792;27;20432;-63
2021/07/07 03:10:49;;;;;;;12.83;10.97;;;22.20;99.90;;;;;;5134734;27;20482;-64
2021/07/07 03:13:16;;;;;;;15.63;10.90;;;22.20;99.90;;;;;;5134785;27;20399;-64
2021/07/07 03:15:42;;;;;;;15.53;11.63;;;22.30;99.90;;;;;;5134603;27;20978;-68
2021/07/07 03:18:09;;;;;;;17.10;11.50;;;22.30;99.90;;;;;;5134668;27;20901;-68
2021/07/07 03:20:36;;;;;;;15.43;10.37;;;22.30;99.90;;;;;;5134456;27;20802;-68
2021/07/07 03:23:04;;;;;;;14.43;10.63;;;22.30;99.90;;;;;;5116121;27;20410;-64
2021/07/07 03:25:29;;;;;;;15.40;10.93;;;22.30;99.90;;;;;;5133893;27;20951;-63
2021/07/07 03:27:55;;;;;;;12.53;10.57;;;22.40;99.90;;;;;;5134747;28;20387;-64
2021/07/07 03:30:21;;;;;;;14.20;11.83;;;22.40;99.90;;;;;;5134407;27;20660;-65
2021/07/07 03:32:47;;;;;;;20.17;11.40;;;22.40;99.90;;;;;;5134659;28;20574;-68
2021/07/07 03:35:13;;;;;;;11.93;10.63;;;22.40;99.90;;;;;;5116013;28;20446;-63
2021/07/07 03:37:39;;;;;;;18.63;11.33;;;22.50;99.90;;;;;;5134552;28;20632;-69
2021/07/07 03:40:06;;;;;;;16.13;11.47;;;22.50;99.90;;;;;;5115885;28;20274;-64
2021/07/07 03:42:32;;;;;;;14.20;11.50;;;22.50;99.90;;;;;;5134318;28;20477;-64
2021/07/07 03:44:58;;;;;;;17.53;11.80;;;22.60;99.90;;;;;;5115837;27;20432;-68
2021/07/07 03:47:25;;;;;;;16.23;11.00;;;22.50;99.90;;;;;;5116051;28;20193;-68
2021/07/07 03:49:50;;;;;;;14.83;10.53;;;22.60;99.90;;;;;;5134308;27;20490;-63
2021/07/07 03:52:16;;;;;;;14.93;10.00;;;22.60;99.90;;;;;;5134674;28;20468;-68
2021/07/07 03:54:42;;;;;;;15.20;10.70;;;22.60;99.90;;;;;;5133051;27;20174;-63
2021/07/07 03:57:07;;;;;;;15.27;11.40;;;22.60;99.90;;;;;;5133500;28;20253;-64
2021/07/07 03:59:33;;;;;;;12.23;10.13;;;22.60;99.90;;;;;;5131880;28;20664;-63
2021/07/07 04:01:58;;;;;;;13.10;11.60;;;22.70;99.90;;;;;;5134018;28;20633;-64
2021/07/07 04:04:24;;;;;;;16.20;11.10;;;22.70;99.90;;;;;;5115898;28;20210;-64
2021/07/07 04:06:50;;;;;;;14.50;10.97;;;22.70;99.90;;;;;;5134595;28;20202;-63
2021/07/07 04:09:19;;;;;;;14.40;10.23;;;22.80;99.90;;;;;;5133764;28;20176;-64
2021/07/07 04:11:45;;;;;;;13.77;11.70;;;22.80;99.90;;;;;;5134396;28;20558;-64
2021/07/07 04:14:11;;;;;;;18.33;12.00;;;22.90;99.90;;;;;;5115392;28;20423;-64
2021/07/07 04:16:37;;;;;;;20.53;13.23;;;22.90;99.90;;;;;;5133603;27;20450;-64
2021/07/07 04:19:03;;;;;;;19.70;16.80;;;22.90;99.90;;;;;;5114758;28;20203;-69
2021/07/07 04:21:28;;;;;;;19.33;15.10;;;23.00;99.90;;;;;;5133993;27;20447;-70
2021/07/07 04:23:54;;;;;;;24.27;15.60;;;23.00;99.90;;;;;;5134046;28;20888;-71
2021/07/07 04:26:20;;;;;;;33.87;16.67;;;23.10;99.90;;;;;;5133408;28;20675;-70
2021/07/07 04:28:46;;;;;;;32.53;17.63;;;23.10;99.90;;;;;;5133660;28;20723;-64
2021/07/07 04:31:11;;;;;;;24.80;15.50;;;23.20;99.90;;;;;;5133274;27;20215;-69
2021/07/07 04:33:37;;;;;;;25.57;14.97;;;23.20;99.90;;;;;;5129957;28;21378;-65
2021/07/07 04:36:03;;;;;;;24.30;13.30;;;23.30;99.90;;;;;;5114343;27;20210;-70
2021/07/07 04:38:28;;;;;;;17.60;12.87;;;23.30;99.90;;;;;;5137390;27;20548;-70
2021/07/07 04:40:54;;;;;;;17.27;13.53;;;23.40;99.90;;;;;;5117679;27;20294;-64
2021/07/07 04:43:19;;;;;;;23.73;13.27;;;23.40;99.90;;;;;;5135986;27;20175;-66
2021/07/07 04:45:46;;;;;;;22.37;14.10;;;23.50;99.90;;;;;;5115847;27;20200;-70
2021/07/07 04:48:15;;;;;;;27.93;14.13;;;23.60;99.90;;;;;;5115879;27;20236;-70
2021/07/07 04:50:41;;;;;;;14.53;12.40;;;23.70;99.90;;;;;;5135844;27;20542;-64
2021/07/07 04:53:07;;;;;;;20.03;14.10;;;23.70;99.90;;;;;;5113415;27;20511;-66
2021/07/07 04:55:33;;;;;;;16.63;13.03;;;23.80;99.90;;;;;;5132306;27;20203;-64
2021/07/07 04:57:59;;;;;;;19.77;15.00;;;23.90;99.90;;;;;;5134217;27;20481;-70
2021/07/07 05:00:24;;;;;;;16.07;14.43;;;24.00;99.90;;;;;;5114700;27;20319;-70
2021/07/07 05:02:51;;;;;;;15.70;14.00;;;24.00;99.90;;;;;;5117776;27;20176;-70
2021/07/07 05:05:20;;;;;;;16.03;13.70;;;24.10;99.90;;;;;;5117219;27;20206;-70
2021/07/07 05:07:47;;;;;;;18.73;14.57;;;24.20;99.90;;;;;;5134899;27;20421;-64
2021/07/07 05:10:14;;;;;;;16.77;14.73;;;24.20;99.90;;;;;;5136024;27;20520;-64
2021/07/07 05:12:40;;;;;;;21.70;15.60;;;24.30;99.90;;;;;;5116812;27;20413;-64
2021/07/07 05:15:07;;;;;;;16.37;12.47;;;24.40;99.90;;;;;;5135908;27;20463;-65
2021/07/07 05:17:33;;;;;;;19.03;14.50;;;24.60;99.90;;;;;;5115658;27;20422;-70
2021/07/07 05:19:59;;;;;;;16.93;13.07;;;24.70;99.90;;;;;;5117905;27;21004;-64
2021/07/07 05:22:26;;;;;;;17.27;14.13;;;24.80;99.90;;;;;;5134836;27;20410;-70
2021/07/07 05:24:52;;;;;;;17.63;13.95;;;24.90;99.90;;;;;;5132703;27;20398;-69
2021/07/07 05:27:18;;;;;;;16.30;13.23;;;25.10;99.90;;;;;;5134908;27;20543;-64
2021/07/07 05:29:44;;;;;;;15.93;13.30;;;25.20;99.90;;;;;;5135234;27;20312;-70
2021/07/07 05:32:09;;;;;;;17.10;13.63;;;25.40;99.90;;;;;;5114769;27;20430;-64
2021/07/07 05:34:38;;;;;;;19.03;14.07;;;25.60;99.90;;;;;;5136490;27;20186;-67
2021/07/07 05:37:04;;;;;;;14.37;12.87;;;25.70;99.90;;;;;;5113176;27;21113;-64
2021/07/07 05:39:29;;;;;;;19.87;13.60;;;25.90;99.90;;;;;;5131896;27;20463;-66
2021/07/07 05:41:56;;;;;;;15.40;12.60;;;26.00;99.90;;;;;;5115175;27;20213;-66
2021/07/07 05:44:21;;;;;;;15.30;13.10;;;26.20;99.90;;;;;;5131964;27;20254;-62
2021/07/07 05:46:47;;;;;;;15.67;14.10;;;26.30;99.90;;;;;;5133373;27;20554;-67
2021/07/07 05:49:12;;;;;;;16.90;14.00;;;26.40;99.90;;;;;;5109597;27;20179;-68
2021/07/07 05:51:38;;;;;;;14.73;12.67;;;26.50;99.90;;;;;;5134195;27;20233;-66
2021/07/07 05:54:04;;;;;;;13.63;12.33;;;26.60;99.90;;;;;;5135084;27;20183;-66
2021/07/07 05:56:29;;;;;;;17.60;13.33;;;26.80;99.90;;;;;;5130833;27;20231;-68
2021/07/07 05:58:56;;;;;;;15.43;14.03;;;26.90;99.90;;;;;;5133194;27;20206;-68
2021/07/07 06:01:23;;;;;;;13.23;11.87;;;27.00;99.90;;;;;;5135157;27;20227;-67
2021/07/07 06:03:49;;;;;;;14.10;12.73;;;27.10;99.90;;;;;;5132551;27;20449;-63
2021/07/07 06:06:14;;;;;;;15.07;12.77;;;27.20;99.90;;;;;;5134703;27;20209;-62
2021/07/07 06:08:40;;;;;;;12.90;11.70;;;27.30;99.90;;;;;;5134048;27;20855;-64
2021/07/07 06:11:05;;;;;;;16.20;12.40;;;27.40;99.90;;;;;;5133599;27;20203;-69
2021/07/07 06:13:31;;;;;;;18.00;13.70;;;27.60;99.90;;;;;;5135026;27;20179;-70
2021/07/07 06:15:56;;;;;;;14.20;12.30;;;27.70;99.90;;;;;;5121824;27;20245;-69
2021/07/07 06:18:22;;;;;;;13.07;11.87;;;27.80;99.90;;;;;;5123367;27;20179;-70
2021/07/07 06:20:48;;;;;;;13.27;12.07;;;27.80;99.90;;;;;;5130211;27;20737;-71
2021/07/07 06:23:13;;;;;;;18.03;12.43;;;27.90;99.90;;;;;;5111888;27;20264;-70
2021/07/07 06:25:39;;;;;;;12.37;11.07;;;28.00;99.90;;;;;;5129937;27;20635;-67
2021/07/07 06:28:05;;;;;;;13.60;12.20;;;28.10;99.90;;;;;;5128135;27;20211;-67
2021/07/07 06:30:31;;;;;;;12.90;11.60;;;28.20;99.90;;;;;;5122799;27;20529;-69
2021/07/07 06:32:59;;;;;;;17.10;12.63;;;28.30;99.90;;;;;;5119530;27;20897;-69
2021/07/07 06:35:26;;;;;;;13.87;12.47;;;28.40;99.90;;;;;;5129916;27;20199;-67
2021/07/07 06:37:52;;;;;;;15.20;11.90;;;28.50;99.90;;;;;;5112973;27;20922;-71
2021/07/07 06:40:20;;;;;;;12.63;11.20;;;28.50;99.90;;;;;;5128830;27;20474;-69
2021/07/07 06:42:46;;;;;;;11.93;10.33;;;28.60;99.90;;;;;;5128966;27;20448;-69
2021/07/07 06:45:12;;;;;;;12.20;10.90;;;28.70;99.90;;;;;;5126735;27;21012;-73
2021/07/07 06:47:39;;;;;;;13.70;11.53;;;28.70;99.90;;;;;;5126410;27;20598;-70
2021/07/07 06:50:07;;;;;;;11.67;10.67;;;28.80;99.90;;;;;;5119942;27;20467;-71
2021/07/07 06:52:33;;;;;;;12.00;10.90;;;28.90;99.90;;;;;;5120763;27;20425;-64
2021/07/07 06:54:59;;;;;;;11.40;10.50;;;29.00;99.90;;;;;;5124652;27;20424;-62
2021/07/07 06:57:25;;;;;;;13.03;11.20;;;29.10;99.90;;;;;;5124921;27;20321;-64
2021/07/07 06:59:50;;;;;;;12.73;11.30;;;29.20;99.90;;;;;;5129492;27;20466;-71
2021/07/07 07:02:16;;;;;;;12.20;10.90;;;29.20;99.90;;;;;;5112899;27;20181;-64
2021/07/07 07:04:42;;;;;;;11.53;10.50;;;29.40;99.90;;;;;;5132033;27;20175;-63
2021/07/07 07:07:07;;;;;;;12.15;10.85;;;29.40;99.90;;;;;;5130149;27;20409;-70
2021/07/07 07:09:33;;;;;;;10.47;9.67;;;29.60;99.90;;;;;;5131899;27;20689;-65
2021/07/07 07:11:59;;;;;;;12.93;10.70;;;29.60;99.90;;;;;;5131267;27;20684;-70
2021/07/07 07:14:25;;;;;;;12.27;11.10;;;29.70;99.90;;;;;;5129295;27;20184;-69
2021/07/07 07:16:50;;;;;;;12.10;11.00;;;29.80;99.90;;;;;;5110290;27;20217;-68
2021/07/07 07:19:16;;;;;;;11.00;9.90;;;29.90;99.90;;;;;;5130101;27;20677;-70
2021/07/07 07:21:42;;;;;;;11.43;10.23;;;30.00;99.90;;;;;;5130870;27;20211;-69
2021/07/07 07:24:08;;;;;;;11.93;10.73;;;30.00;99.90;;;;;;5129287;28;20194;-69
2021/07/07 07:26:35;;;;;;;11.00;9.90;;;30.10;99.90;;;;;;5130103;27;20680;-68
2021/07/07 07:29:01;;;;;;;10.57;9.67;;;30.10;99.90;;;;;;5129374;28;20555;-64
2021/07/07 07:31:27;;;;;;;10.63;9.70;;;30.30;99.90;;;;;;5120398;28;20564;-70
2021/07/07 07:33:53;;;;;;;11.57;10.50;;;30.30;99.90;;;;;;5123585;28;20181;-70
2021/07/07 07:36:20;;;;;;;11.30;10.30;;;30.40;99.90;;;;;;5130758;27;20892;-64
2021/07/07 07:38:48;;;;;;;13.33;10.90;;;30.40;99.90;;;;;;5131800;28;20203;-70
2021/07/07 07:41:15;;;;;;;12.50;11.30;;;30.50;99.90;;;;;;5133389;28;20448;-68
2021/07/07 07:43:42;;;;;;;11.90;10.80;;;30.60;99.90;;;;;;5129902;28;20519;-71
2021/07/07 07:46:08;;;;;;;12.30;10.47;;;30.70;99.50;;;;;;5128637;27;20481;-70
2021/07/07 07:48:34;;;;;;;12.50;11.30;;;30.80;99.40;;;;;;5125637;28;20440;-69
2021/07/07 07:50:59;;;;;;;11.50;10.40;;;30.80;99.60;;;;;;5126101;27;20285;-69
2021/07/07 07:53:25;;;;;;;11.47;10.37;;;30.90;99.90;;;;;;5108080;28;20670;-66
2021/07/07 07:55:51;;;;;;;11.50;10.40;;;31.00;99.10;;;;;;5115342;28;20678;-67
2021/07/07 07:58:18;;;;;;;12.03;10.77;;;31.10;98.40;;;;;;5121744;28;20210;-66
2021/07/07 08:00:45;;;;;;;12.03;10.83;;;31.10;96.90;;;;;;5121790;27;20212;-71
2021/07/07 08:03:12;;;;;;;11.17;10.17;;;31.20;97.40;;;;;;5102578;28;20430;-69
2021/07/07 08:05:38;;;;;;;11.90;10.00;;;31.30;97.20;;;;;;5119493;27;20504;-69
2021/07/07 08:08:03;;;;;;;10.80;9.70;;;31.30;97.40;;;;;;5127465;28;20470;-63
2021/07/07 08:10:29;;;;;;;12.20;10.10;;;31.40;97.50;;;;;;5127356;27;20465;-69
2021/07/07 08:12:56;;;;;;;13.27;10.23;;;31.40;97.70;;;;;;5130163;27;20178;-69
2021/07/07 08:15:23;;;;;;;12.77;10.07;;;31.50;96.30;;;;;;5131467;27;20451;-69
2021/07/07 08:17:48;;;;;;;10.17;9.17;;;31.70;96.60;;;;;;5114252;27;20497;-69
2021/07/07 08:20:15;;;;;;;12.27;10.80;;;31.70;95.00;;;;;;5128955;27;21070;-64
2021/07/07 08:22:41;;;;;;;10.20;9.30;;;31.70;95.20;;;;;;5131832;27;20183;-68
2021/07/07 08:25:08;;;;;;;10.83;9.93;;;31.70;95.20;;;;;;5115532;27;21045;-69
2021/07/07 08:27:34;;;;;;;10.20;9.40;;;31.80;94.70;;;;;;5132120;27;20195;-64
2021/07/07 08:30:00;;;;;;;11.30;10.30;;;31.80;94.30;;;;;;5132762;27;20951;-68
2021/07/07 08:32:25;;;;;;;11.30;10.23;;;31.90;94.50;;;;;;5132329;27;20186;-68
2021/07/07 08:34:51;;;;;;;11.60;10.60;;;31.90;95.00;;;;;;5101763;27;20174;-68
2021/07/07 08:37:17;;;;;;;10.50;9.60;;;32.00;94.50;;;;;;5127407;27;20652;-68
2021/07/07 08:39:42;;;;;;;10.20;9.30;;;32.10;93.30;;;;;;5107946;27;20234;-65
2021/07/07 08:42:08;;;;;;;10.60;9.60;;;32.20;93.00;;;;;;5128704;27;20190;-65
2021/07/07 08:44:34;;;;;;;11.53;10.43;;;32.20;93.00;;;;;;5133420;27;20206;-69
2021/07/07 08:47:02;;;;;;;10.97;9.87;;;32.30;93.40;;;;;;5129713;27;20195;-68
2021/07/07 08:49:28;;;;;;;10.73;9.73;;;32.40;93.20;;;;;;5131455;27;20468;-64
2021/07/07 08:51:53;;;;;;;9.97;9.17;;;32.40;92.90;;;;;;5113726;27;20842;-67
2021/07/07 08:54:19;;;;;;;11.90;9.83;;;32.50;92.40;;;;;;5133151;27;20551;-65
2021/07/07 08:56:46;;;;;;;12.63;10.70;;;32.60;92.70;;;;;;5104510;28;20257;-66
2021/07/07 08:59:15;;;;;;;11.77;10.00;;;32.60;92.70;;;;;;5110929;28;20685;-62
2021/07/07 09:02:03;;;;;;;10.70;9.67;;;32.60;92.10;;;;;;5109193;28;20447;-65
2021/07/07 09:04:34;;;;;;;11.67;10.57;;;32.70;92.40;;;;;;5111005;28;20427;-66
2021/07/07 09:07:02;;;;;;;10.73;9.70;;;32.80;92.40;;;;;;5112191;28;20436;-63
2021/07/07 09:09:38;;;;;;;11.17;10.00;;;32.80;91.60;;;;;;5114640;28;20810;-66
2021/07/07 09:12:11;;;;;;;11.75;10.65;;;32.90;91.50;;;;;;5107137;28;20420;-63
2021/07/07 09:14:37;;;;;;;13.80;10.75;;;33.10;91.60;;;;;;5113020;28;20404;-63
2021/07/07 09:17:11;;;;;;;11.23;10.23;;;33.10;90.80;;;;;;5110913;28;20213;-64
2021/07/07 09:19:39;;;;;;;11.03;9.33;;;33.10;90.90;;;;;;5109151;28;20200;-67
2021/07/07 09:22:07;;;;;;;9.97;9.07;;;33.10;91.20;;;;;;5108296;28;20945;-66
2021/07/07 09:24:34;;;;;;;13.10;9.83;;;33.20;90.80;;;;;;5112156;28;20424;-63
2021/07/07 09:27:06;;;;;;;10.73;9.73;;;33.20;90.90;;;;;;5113297;28;20936;-62
2021/07/07 09:29:34;;;;;;;13.20;10.47;;;33.20;90.00;;;;;;5113115;28;20416;-63
2021/07/07 09:32:20;;;;;;;14.73;10.50;;;33.20;90.30;;;;;;5110045;28;20436;-62
2021/07/07 09:34:52;;;;;;;10.20;9.40;;;33.30;90.80;;;;;;5107173;28;20489;-62
2021/07/07 09:37:27;;;;;;;10.73;9.73;;;33.30;90.90;;;;;;5110710;28;20943;-63
2021/07/07 09:39:54;;;;;;;10.50;9.50;;;33.40;90.00;;;;;;5106601;27;20474;-63
2021/07/07 09:42:28;;;;;;;10.80;9.70;;;33.50;90.20;;;;;;5110903;27;20438;-67
2021/07/07 09:44:55;;;;;;;11.07;10.07;;;33.50;90.30;;;;;;5095588;28;20519;-66
2021/07/07 09:47:22;;;;;;;10.10;9.20;;;33.50;90.50;;;;;;5111083;28;20428;-64
2021/07/07 09:49:48;;;;;;;11.20;9.63;;;33.60;88.80;;;;;;5106943;28;20753;-62
2021/07/07 09:52:18;;;;;;;10.57;9.67;;;33.70;88.90;;;;;;5108719;28;20925;-64
2021/07/07 09:54:45;;;;;;;10.70;9.60;;;33.80;89.90;;;;;;5106116;28;20581;-67
2021/07/07 09:57:11;;;;;;;9.10;8.30;;;33.90;90.40;;;;;;5106629;28;20780;-63
2021/07/07 09:59:36;;;;;;;9.80;8.93;;;33.90;88.60;;;;;;5110736;28;20474;-63
2021/07/07 10:02:03;;;;;;;9.53;8.63;;;34.00;88.80;;;;;;5112347;28;20207;-67
2021/07/07 10:04:34;;;;;;;10.07;9.23;;;34.10;86.50;;;;;;5108495;28;20208;-63
2021/07/07 10:07:00;;;;;;;10.37;9.20;;;34.10;87.90;;;;;;5110775;28;20458;-63
2021/07/07 10:09:27;;;;;;;10.50;9.50;;;34.20;87.10;;;;;;5110568;27;20868;-67
2021/07/07 10:11:54;;;;;;;10.90;8.60;;;34.20;85.80;;;;;;5106035;28;20443;-64
2021/07/07 10:14:21;;;;;;;9.80;8.87;;;34.10;87.00;;;;;;5109731;28;20442;-68
2021/07/07 10:16:48;;;;;;;11.00;10.00;;;34.10;86.30;;;;;;5105589;28;20546;-65
2021/07/07 10:19:15;;;;;;;10.50;8.43;;;34.10;88.00;;;;;;5106399;28;20981;-64
2021/07/07 10:21:41;;;;;;;8.70;7.93;;;34.20;88.40;;;;;;5107299;28;20952;-65
2021/07/07 10:24:08;;;;;;;9.37;8.10;;;34.20;84.30;;;;;;5107209;28;20423;-67
2021/07/07 10:26:34;;;;;;;8.10;7.30;;;34.20;83.10;;;;;;5103944;28;20562;-65
2021/07/07 10:29:00;;;;;;;9.57;8.87;;;34.20;83.90;;;;;;5104471;28;20954;-68
2021/07/07 10:31:46;;;;;;;8.20;7.40;;;34.20;84.00;;;;;;5108610;28;20455;-67
2021/07/07 10:34:12;;;;;;;9.57;8.70;;;34.10;85.60;;;;;;5109868;28;20853;-67
2021/07/07 10:36:42;;;;;;;9.50;8.57;;;34.10;84.50;;;;;;5107649;28;20586;-68
2021/07/07 10:39:10;;;;;;;10.13;9.10;;;34.10;84.10;;;;;;5110466;28;20240;-68
2021/07/07 10:41:42;;;;;;;9.83;8.93;;;34.00;83.70;;;;;;5110475;28;20412;-67
2021/07/07 10:44:11;;;;;;;9.07;8.37;;;34.00;85.70;;;;;;5109967;28;20789;-66
2021/07/07 10:47:13;;;;;;;9.77;8.87;;;33.90;85.60;;;;;;5102170;28;20541;-65
2021/07/07 10:49:40;;;;;;;9.70;8.83;;;33.90;85.90;;;;;;5110488;28;20432;-65
2021/07/07 10:52:07;;;;;;;10.13;9.23;;;33.80;85.40;;;;;;5093419;28;20801;-67
2021/07/07 10:54:36;;;;;;;9.97;9.07;;;33.80;85.00;;;;;;5094800;28;20463;-65
2021/07/07 10:57:05;;;;;;;9.70;8.80;;;33.80;85.40;;;;;;5123472;27;20490;-65
2021/07/07 10:59:37;;;;;;;10.77;9.67;;;33.80;85.00;;;;;;5131594;27;20470;-63
2021/07/07 11:02:21;;;;;;;11.03;9.93;;;33.80;84.70;;;;;;5131291;27;20431;-62
2021/07/07 11:04:58;;;;;;;9.77;8.90;;;33.80;84.60;;;;;;5109641;27;20772;-68
2021/07/07 11:07:31;;;;;;;9.77;8.77;;;33.80;85.50;;;;;;5129241;27;20522;-63
2021/07/07 11:09:59;;;;;;;10.60;9.03;;;33.80;84.50;;;;;;5108707;27;20422;-62
2021/07/07 11:12:39;;;;;;;9.47;8.67;;;33.80;85.70;;;;;;5131040;27;20434;-64
2021/07/07 11:15:13;;;;;;;9.63;8.73;;;33.80;84.40;;;;;;5129073;27;20852;-63
2021/07/07 11:17:41;;;;;;;8.80;8.00;;;33.80;83.70;;;;;;5106666;28;20442;-64
2021/07/07 11:20:08;;;;;;;10.03;7.97;;;33.80;83.60;;;;;;5124522;27;20479;-64
2021/07/07 11:22:35;;;;;;;8.63;7.90;;;33.80;83.50;;;;;;5129249;27;20435;-64
2021/07/07 11:25:04;;;;;;;8.87;8.10;;;33.80;83.20;;;;;;5124097;28;20932;-70
2021/07/07 11:27:32;;;;;;;9.57;8.70;;;33.80;83.90;;;;;;5103704;28;20442;-63
2021/07/07 11:29:58;;;;;;;9.17;8.07;;;33.80;82.10;;;;;;5128119;27;20423;-68
2021/07/07 11:32:31;;;;;;;9.97;9.07;;;33.90;83.20;;;;;;5128326;28;21001;-64
2021/07/07 11:35:08;;;;;;;8.40;7.70;;;33.90;85.60;;;;;;5126668;28;20443;-69
2021/07/07 11:37:35;;;;;;;9.57;8.77;;;33.90;83.00;;;;;;5109218;28;20511;-63
2021/07/07 11:40:04;;;;;;;12.10;8.60;;;33.90;83.30;;;;;;5110517;27;20485;-68
2021/07/07 11:42:30;;;;;;;9.63;8.83;;;33.90;84.80;;;;;;5129223;28;20509;-63
2021/07/07 11:44:56;;;;;;;13.87;8.80;;;33.90;83.60;;;;;;5125904;27;20809;-70
2021/07/07 11:47:35;;;;;;;9.20;8.30;;;33.90;83.60;;;;;;5131405;27;20218;-63
2021/07/07 11:50:11;;;;;;;8.83;7.93;;;34.00;84.10;;;;;;5131591;27;20205;-69
2021/07/07 11:52:56;;;;;;;8.80;8.10;;;34.10;83.10;;;;;;5128971;27;20542;-70
2021/07/07 11:55:40;;;;;;;8.53;7.57;;;34.10;82.60;;;;;;5129551;27;20928;-64
2021/07/07 11:58:06;;;;;;;8.90;7.90;;;34.10;81.00;;;;;;5115471;27;20447;-66
2021/07/07 12:00:40;;;;;;;8.33;7.60;;;34.00;79.10;;;;;;5129231;27;20858;-64
2021/07/07 12:03:06;;;;;;;8.80;8.00;;;34.00;79.50;;;;;;5134484;27;20235;-68
2021/07/07 12:05:32;;;;;;;8.33;7.40;;;34.00;79.70;;;;;;5132170;27;20450;-65
2021/07/07 12:08:18;;;;;;;8.00;7.40;;;34.00;79.40;;;;;;5111681;27;20437;-63
2021/07/07 12:10:43;;;;;;;8.90;8.00;;;34.10;78.30;;;;;;5127805;27;20442;-64
2021/07/07 12:13:40;;;;;;;8.50;7.70;;;34.10;80.40;;;;;;5116375;27;20579;-63
2021/07/07 12:16:31;;;;;;;8.03;7.43;;;34.00;81.40;;;;;;5109277;27;20206;-64
2021/07/07 12:19:05;;;;;;;8.57;7.77;;;34.10;79.40;;;;;;5131348;27;20462;-68
2021/07/07 12:21:33;;;;;;;7.97;7.37;;;34.10;79.00;;;;;;5114053;27;20466;-68
2021/07/07 12:24:02;;;;;;;8.00;7.40;;;34.10;78.30;;;;;;5111678;27;20470;-69
2021/07/07 12:26:31;;;;;;;8.63;7.83;;;34.10;78.00;;;;;;5112318;27;20469;-69
2021/07/07 12:29:00;;;;;;;8.53;7.00;;;34.10;78.50;;;;;;5109838;27;20517;-67
2021/07/07 12:31:47;;;;;;;8.53;7.73;;;34.10;78.90;;;;;;5131430;27;20438;-69
2021/07/07 12:34:15;;;;;;;8.73;7.93;;;34.10;78.10;;;;;;5131971;27;20475;-69